Time;durP1;ratioP1;P1;durP2;ratioP2;P2;SDS_P1;SDS_P2;PMS_P1;PMS_P2;Temp;Humidity;BMP_temperature;BMP_pressure;BME280_temperature;BME280_humidity;BME280_pressure;Samples;Min_cycle;Max_cycle;Signal;HPM_P1;HPM_P2
2023/04/17 00:02:01;;;;;;;25.67;19.10;;;9.00;99.90;;;;;;4993848;28;20263;-73
2023/04/17 00:04:27;;;;;;;24.07;20.67;;;8.90;99.90;;;;;;4994797;28;20290;-72
2023/04/17 00:06:52;;;;;;;23.00;20.00;;;9.00;99.90;;;;;;4992553;28;20234;-72
2023/04/17 00:09:18;;;;;;;26.60;20.80;;;9.00;99.90;;;;;;4992974;28;20215;-72
2023/04/17 00:11:44;;;;;;;24.73;19.77;;;9.00;99.90;;;;;;4994740;28;20184;-73
2023/04/17 00:14:09;;;;;;;23.27;20.00;;;9.00;99.90;;;;;;4993629;28;20710;-72
2023/04/17 00:16:35;;;;;;;22.63;20.33;;;8.90;99.90;;;;;;4994350;28;20195;-72
2023/04/17 00:19:00;;;;;;;22.80;19.87;;;8.90;99.90;;;;;;4992932;28;20270;-72
2023/04/17 00:21:28;;;;;;;27.40;21.80;;;8.90;99.90;;;;;;4994456;28;20661;-72
2023/04/17 00:23:54;;;;;;;28.40;21.10;;;8.90;99.90;;;;;;4993080;28;20279;-72
2023/04/17 00:26:19;;;;;;;31.23;21.50;;;8.90;99.90;;;;;;4992713;28;20585;-73
2023/04/17 00:28:46;;;;;;;26.03;19.90;;;8.90;99.90;;;;;;4990682;28;20187;-72
2023/04/17 00:31:12;;;;;;;25.10;21.00;;;8.90;99.90;;;;;;4993471;28;20180;-72
2023/04/17 00:33:37;;;;;;;28.43;22.03;;;8.80;99.90;;;;;;4992408;28;20991;-72
2023/04/17 00:36:03;;;;;;;27.03;21.90;;;8.90;99.90;;;;;;4993708;28;20247;-72
2023/04/17 00:38:29;;;;;;;24.87;21.40;;;8.80;99.90;;;;;;4992532;28;20182;-72
2023/04/17 00:40:54;;;;;;;20.13;17.93;;;8.90;99.90;;;;;;4993456;28;20179;-73
2023/04/17 00:43:20;;;;;;;22.47;18.90;;;8.90;99.90;;;;;;4993195;28;20195;-72
2023/04/17 00:45:46;;;;;;;23.80;20.00;;;8.90;99.90;;;;;;4993883;28;20222;-72
2023/04/17 00:48:14;;;;;;;26.33;21.20;;;8.80;99.90;;;;;;4991073;28;20246;-72
2023/04/17 00:50:41;;;;;;;26.40;20.70;;;8.80;99.90;;;;;;4993179;28;20442;-72
2023/04/17 00:53:07;;;;;;;24.17;20.40;;;8.90;99.90;;;;;;4993122;28;20469;-72
2023/04/17 00:55:34;;;;;;;27.23;20.80;;;8.90;99.90;;;;;;4993448;28;20978;-72
2023/04/17 00:58:00;;;;;;;27.20;18.77;;;8.90;99.90;;;;;;4993624;28;20239;-72
2023/04/17 01:00:25;;;;;;;23.70;20.17;;;8.90;99.90;;;;;;4991980;28;20553;-72
2023/04/17 01:02:51;;;;;;;24.33;19.67;;;8.90;99.90;;;;;;4992926;28;20544;-73
2023/04/17 01:05:17;;;;;;;25.07;21.90;;;8.90;99.90;;;;;;4993488;28;20207;-72
2023/04/17 01:07:44;;;;;;;24.23;19.23;;;8.90;99.90;;;;;;4992600;28;20187;-72
2023/04/17 01:10:10;;;;;;;22.63;19.83;;;8.90;99.90;;;;;;4991388;28;20215;-73
2023/04/17 01:12:35;;;;;;;25.97;21.83;;;8.90;99.90;;;;;;4991770;28;20949;-73
2023/04/17 01:15:01;;;;;;;22.93;18.83;;;8.90;99.90;;;;;;4993202;28;20476;-72
2023/04/17 01:17:27;;;;;;;25.60;21.30;;;8.90;99.90;;;;;;4987439;28;20195;-72
2023/04/17 01:19:52;;;;;;;24.80;20.00;;;8.90;99.90;;;;;;4991672;28;20228;-72
2023/04/17 01:22:21;;;;;;;24.63;20.13;;;8.90;99.90;;;;;;4991159;28;20210;-72
2023/04/17 01:24:47;;;;;;;23.47;19.67;;;8.90;99.90;;;;;;4987654;28;20217;-72
2023/04/17 01:27:13;;;;;;;26.87;20.73;;;8.80;99.90;;;;;;4992406;28;20514;-73
2023/04/17 01:29:40;;;;;;;25.40;21.30;;;8.80;99.90;;;;;;4989670;28;20255;-73
2023/04/17 01:32:06;;;;;;;21.73;19.37;;;8.80;99.90;;;;;;4974209;28;20804;-73
2023/04/17 01:34:32;;;;;;;23.57;19.63;;;8.90;99.90;;;;;;4992683;28;20468;-72
2023/04/17 01:36:57;;;;;;;22.83;19.63;;;8.90;99.90;;;;;;4993085;28;20529;-73
2023/04/17 01:39:23;;;;;;;24.83;19.87;;;8.80;99.90;;;;;;4992405;28;20180;-72
2023/04/17 01:41:48;;;;;;;26.53;21.00;;;8.80;99.90;;;;;;4992163;28;20238;-72
2023/04/17 01:44:14;;;;;;;21.63;18.20;;;8.80;99.90;;;;;;4991602;28;20231;-73
2023/04/17 01:46:40;;;;;;;23.30;19.63;;;8.90;99.90;;;;;;4992828;28;20184;-72
2023/04/17 01:49:05;;;;;;;23.33;19.50;;;8.80;99.90;;;;;;4990237;28;20223;-72
2023/04/17 01:51:31;;;;;;;23.27;20.03;;;8.90;99.90;;;;;;4990178;28;20359;-72
2023/04/17 01:53:57;;;;;;;24.03;19.13;;;8.90;99.90;;;;;;4991698;28;20574;-72
2023/04/17 01:56:22;;;;;;;22.27;19.87;;;8.90;99.90;;;;;;4991818;28;20470;-71
2023/04/17 01:58:48;;;;;;;23.90;20.03;;;8.90;99.90;;;;;;4992083;28;20590;-72
2023/04/17 02:01:13;;;;;;;21.67;18.63;;;8.90;99.90;;;;;;4992554;28;20175;-73
2023/04/17 02:03:39;;;;;;;26.60;20.43;;;8.90;99.90;;;;;;4993002;28;20171;-72
2023/04/17 02:06:05;;;;;;;28.20;20.00;;;8.90;99.90;;;;;;4992014;28;20191;-72
2023/04/17 02:08:30;;;;;;;23.67;18.80;;;8.80;99.90;;;;;;4991494;28;20179;-73
2023/04/17 02:10:56;;;;;;;24.53;21.00;;;8.80;99.90;;;;;;4991795;28;20215;-72
2023/04/17 02:13:21;;;;;;;24.70;19.97;;;8.90;99.90;;;;;;4991899;28;20187;-72
2023/04/17 02:15:47;;;;;;;23.80;19.20;;;8.80;99.90;;;;;;4993376;28;20207;-71
2023/04/17 02:18:12;;;;;;;26.60;20.70;;;8.90;99.90;;;;;;4992020;28;20551;-72
2023/04/17 02:20:38;;;;;;;21.97;19.27;;;8.80;99.90;;;;;;4993412;28;20542;-71
2023/04/17 02:23:05;;;;;;;23.40;20.17;;;8.80;99.90;;;;;;4994756;28;20176;-71
2023/04/17 02:25:31;;;;;;;24.43;19.43;;;8.80;99.90;;;;;;4992031;28;20206;-71
2023/04/17 02:27:57;;;;;;;24.07;19.40;;;8.80;99.90;;;;;;4990863;28;20485;-71
2023/04/17 02:30:24;;;;;;;24.90;19.80;;;8.90;99.90;;;;;;4988641;28;20497;-71
2023/04/17 02:32:51;;;;;;;26.47;20.20;;;8.80;99.90;;;;;;4993738;28;20208;-71
2023/04/17 02:35:17;;;;;;;26.33;20.40;;;8.80;99.90;;;;;;4987836;28;20459;-71
2023/04/17 02:37:43;;;;;;;27.73;20.73;;;8.80;99.90;;;;;;4990591;28;20971;-71
2023/04/17 02:40:09;;;;;;;26.27;22.03;;;8.80;99.90;;;;;;4971412;28;20517;-72
2023/04/17 02:42:35;;;;;;;24.97;20.40;;;8.80;99.90;;;;;;4990586;28;20183;-71
2023/04/17 02:45:00;;;;;;;24.70;20.87;;;8.90;99.90;;;;;;4972442;28;20214;-71
2023/04/17 02:47:26;;;;;;;24.93;19.27;;;8.90;99.90;;;;;;4991005;28;20190;-71
2023/04/17 02:49:51;;;;;;;24.00;19.90;;;8.90;99.90;;;;;;4990042;28;20183;-72
2023/04/17 02:52:17;;;;;;;24.80;18.43;;;8.90;99.90;;;;;;4987231;28;20187;-72
2023/04/17 02:54:43;;;;;;;21.77;18.10;;;8.90;99.90;;;;;;4990359;28;20275;-71
2023/04/17 02:57:08;;;;;;;24.50;19.27;;;8.80;99.90;;;;;;4990670;28;20597;-72
2023/04/17 02:59:34;;;;;;;26.47;20.20;;;8.90;99.90;;;;;;4991297;28;20521;-71
2023/04/17 03:02:00;;;;;;;22.57;19.90;;;8.90;99.90;;;;;;4994043;28;20187;-72
2023/04/17 03:04:28;;;;;;;26.70;21.57;;;8.90;99.90;;;;;;4993435;28;20569;-71
2023/04/17 03:06:54;;;;;;;27.77;19.80;;;8.90;99.90;;;;;;4994305;28;20823;-71
2023/04/17 03:09:21;;;;;;;23.90;20.23;;;8.80;99.90;;;;;;4993127;28;20438;-71
2023/04/17 03:11:47;;;;;;;24.90;20.97;;;8.80;99.90;;;;;;4992143;28;20656;-71
2023/04/17 03:14:13;;;;;;;26.97;21.07;;;8.70;99.90;;;;;;4993249;28;20917;-71
2023/04/17 03:16:39;;;;;;;26.27;21.27;;;8.80;99.90;;;;;;4983008;28;20438;-72
2023/04/17 03:19:04;;;;;;;25.27;21.17;;;8.80;99.90;;;;;;4992239;28;20946;-71
2023/04/17 03:21:30;;;;;;;24.40;20.83;;;8.80;99.90;;;;;;4993390;28;20185;-71
2023/04/17 03:23:56;;;;;;;27.33;21.37;;;8.80;99.90;;;;;;4993950;28;20327;-71
2023/04/17 03:26:21;;;;;;;26.07;20.30;;;8.70;99.90;;;;;;4993936;28;20191;-71
2023/04/17 03:28:47;;;;;;;24.47;20.63;;;8.80;99.90;;;;;;4993242;28;20215;-71
2023/04/17 03:31:12;;;;;;;25.70;21.50;;;8.80;99.90;;;;;;4990771;28;20191;-71
2023/04/17 03:33:38;;;;;;;28.17;21.53;;;8.80;99.90;;;;;;4991369;28;20191;-72
2023/04/17 03:36:04;;;;;;;31.70;23.33;;;8.80;99.90;;;;;;4995094;28;20222;-71
2023/04/17 03:38:30;;;;;;;24.10;19.60;;;8.90;99.90;;;;;;4994007;28;20184;-71
2023/04/17 03:40:56;;;;;;;26.57;21.30;;;8.90;99.90;;;;;;4994636;28;20800;-72
2023/04/17 03:43:21;;;;;;;26.37;21.07;;;8.90;99.90;;;;;;4994314;28;20198;-71
2023/04/17 03:45:47;;;;;;;26.63;19.60;;;8.90;99.90;;;;;;4988626;23;20256;-70
2023/04/17 03:48:12;;;;;;;23.30;20.17;;;8.90;99.90;;;;;;4947026;29;20182;-68
2023/04/17 03:50:38;;;;;;;24.83;19.07;;;8.80;99.90;;;;;;4955413;29;20251;-70
2023/04/17 03:53:04;;;;;;;22.43;19.80;;;8.80;99.90;;;;;;4955219;29;20280;-70
2023/04/17 03:55:29;;;;;;;24.07;19.90;;;8.80;99.90;;;;;;4954444;28;20217;-71
2023/04/17 03:57:55;;;;;;;23.03;20.43;;;8.70;99.90;;;;;;4953698;29;20189;-70
2023/04/17 04:00:20;;;;;;;26.33;21.00;;;8.70;99.90;;;;;;4950747;28;20199;-70
2023/04/17 04:02:46;;;;;;;25.63;20.40;;;8.70;99.90;;;;;;4950687;29;20186;-70
2023/04/17 04:05:12;;;;;;;23.90;18.80;;;8.70;99.90;;;;;;4949808;28;20213;-70
2023/04/17 04:07:37;;;;;;;29.17;21.13;;;8.80;99.90;;;;;;4949890;29;20536;-70
2023/04/17 04:10:03;;;;;;;25.23;20.63;;;8.80;99.90;;;;;;4955115;28;20188;-70
2023/04/17 04:12:29;;;;;;;21.63;19.17;;;8.70;99.90;;;;;;4946526;29;20178;-70
2023/04/17 04:14:54;;;;;;;21.27;18.97;;;8.70;99.90;;;;;;4952573;29;20605;-70
2023/04/17 04:17:20;;;;;;;28.00;20.10;;;8.70;99.90;;;;;;4945256;28;20600;-71
2023/04/17 04:19:46;;;;;;;27.63;19.80;;;8.70;99.90;;;;;;4945707;29;20192;-70
2023/04/17 04:22:13;;;;;;;25.43;20.80;;;8.80;99.90;;;;;;4953675;28;20189;-70
2023/04/17 04:24:39;;;;;;;24.10;19.87;;;8.70;99.90;;;;;;4942814;29;20456;-69
2023/04/17 04:27:08;;;;;;;22.70;18.67;;;8.70;99.90;;;;;;4952066;29;20441;-70
2023/04/17 04:29:34;;;;;;;23.50;18.87;;;8.70;99.90;;;;;;4953994;29;20440;-70
2023/04/17 04:32:00;;;;;;;27.43;20.73;;;8.70;99.90;;;;;;4953517;29;20436;-70
2023/04/17 04:34:28;;;;;;;22.00;18.57;;;8.70;99.90;;;;;;4952431;28;20534;-70
2023/04/17 04:36:55;;;;;;;26.20;19.70;;;8.70;99.90;;;;;;4950237;29;20801;-70
2023/04/17 04:39:20;;;;;;;24.57;18.50;;;8.70;99.90;;;;;;4953673;29;20448;-70
2023/04/17 04:41:48;;;;;;;24.10;19.17;;;8.70;99.90;;;;;;4955321;29;20444;-70
2023/04/17 04:44:14;;;;;;;23.83;19.20;;;8.70;99.90;;;;;;4953383;28;20635;-71
2023/04/17 04:46:40;;;;;;;22.10;18.80;;;8.70;99.90;;;;;;4954232;29;20440;-71
2023/04/17 04:49:05;;;;;;;26.13;20.77;;;8.80;99.90;;;;;;4953519;28;20455;-70
2023/04/17 04:51:32;;;;;;;24.33;19.87;;;8.70;99.90;;;;;;4954970;29;20737;-70
2023/04/17 04:53:58;;;;;;;24.33;18.23;;;8.80;99.90;;;;;;4945572;28;20256;-68
2023/04/17 04:56:23;;;;;;;22.13;18.17;;;8.80;99.90;;;;;;4944001;29;20969;-68
2023/04/17 04:58:49;;;;;;;22.30;18.43;;;8.80;99.90;;;;;;4948951;29;20189;-68
2023/04/17 05:01:16;;;;;;;22.60;18.03;;;8.70;99.90;;;;;;4949271;29;20189;-68
2023/04/17 05:03:43;;;;;;;25.47;19.83;;;8.70;99.90;;;;;;4954613;29;20180;-67
2023/04/17 05:06:10;;;;;;;22.57;17.90;;;8.80;99.90;;;;;;4949937;29;20805;-68
2023/04/17 05:08:35;;;;;;;22.10;18.63;;;8.80;99.90;;;;;;4952172;28;20437;-67
2023/04/17 05:11:02;;;;;;;24.53;20.07;;;8.70;99.90;;;;;;4954428;28;20540;-68
2023/04/17 05:13:29;;;;;;;30.93;22.13;;;8.70;99.90;;;;;;4955472;29;20184;-67
2023/04/17 05:15:55;;;;;;;22.27;18.80;;;8.80;99.90;;;;;;4955265;29;20459;-68
2023/04/17 05:18:20;;;;;;;26.43;19.73;;;8.80;99.90;;;;;;4953099;29;20439;-68
2023/04/17 05:20:46;;;;;;;23.80;17.93;;;8.80;99.90;;;;;;4955227;29;20441;-68
2023/04/17 05:23:11;;;;;;;25.13;20.90;;;8.90;99.90;;;;;;4954455;28;20181;-68
2023/04/17 05:25:37;;;;;;;24.80;19.17;;;8.80;99.90;;;;;;4955337;28;20553;-69
2023/04/17 05:28:02;;;;;;;27.57;21.27;;;8.90;99.90;;;;;;4954118;28;20704;-68
2023/04/17 05:30:28;;;;;;;25.40;20.70;;;8.80;99.90;;;;;;4953300;29;20185;-68
2023/04/17 05:32:53;;;;;;;22.37;20.00;;;8.90;99.90;;;;;;4955140;29;20181;-67
2023/04/17 05:35:19;;;;;;;22.90;18.60;;;8.90;99.90;;;;;;4937825;29;20231;-68
2023/04/17 05:37:45;;;;;;;23.27;18.30;;;8.90;99.90;;;;;;4954185;29;20169;-68
2023/04/17 05:40:11;;;;;;;25.07;20.17;;;8.90;99.90;;;;;;4949000;29;20181;-67
2023/04/17 05:42:36;;;;;;;21.47;18.13;;;8.90;99.90;;;;;;4954810;29;20255;-68
2023/04/17 05:45:02;;;;;;;23.50;19.80;;;9.00;99.90;;;;;;4954734;28;20608;-68
2023/04/17 05:47:27;;;;;;;21.50;18.87;;;8.90;99.90;;;;;;4954874;29;20195;-68
2023/04/17 05:49:56;;;;;;;28.23;19.33;;;8.90;99.90;;;;;;4952770;29;20192;-67
2023/04/17 05:52:23;;;;;;;21.70;18.33;;;8.80;99.90;;;;;;4954839;29;20291;-68
2023/04/17 05:54:48;;;;;;;22.00;18.30;;;8.90;99.90;;;;;;4954591;28;21004;-68
2023/04/17 05:57:14;;;;;;;25.60;19.40;;;8.90;99.90;;;;;;4954642;29;20420;-68
2023/04/17 05:59:40;;;;;;;26.33;19.27;;;9.00;99.90;;;;;;4953010;29;20264;-68
2023/04/17 06:02:06;;;;;;;26.10;21.27;;;9.00;99.90;;;;;;4954672;29;20180;-68
2023/04/17 06:04:32;;;;;;;21.90;18.57;;;9.00;99.90;;;;;;4950734;28;20204;-67
2023/04/17 06:06:57;;;;;;;24.27;19.20;;;9.00;99.90;;;;;;4935591;29;20425;-68
2023/04/17 06:09:23;;;;;;;27.00;20.10;;;9.00;99.90;;;;;;4945756;29;20177;-68
2023/04/17 06:11:48;;;;;;;27.43;20.80;;;8.90;99.90;;;;;;4954483;29;20205;-68
2023/04/17 06:14:14;;;;;;;22.93;20.43;;;9.00;99.90;;;;;;4954206;28;20208;-68
2023/04/17 06:16:40;;;;;;;28.80;21.67;;;8.90;99.90;;;;;;4954548;29;20252;-68
2023/04/17 06:19:05;;;;;;;29.37;22.70;;;8.90;99.90;;;;;;4952571;29;20616;-67
2023/04/17 06:21:31;;;;;;;24.33;20.07;;;8.90;99.90;;;;;;4937051;29;20173;-68
2023/04/17 06:23:56;;;;;;;25.40;20.70;;;8.90;99.90;;;;;;4954496;29;20260;-68
2023/04/17 06:26:22;;;;;;;20.70;18.47;;;9.00;99.90;;;;;;4953941;28;20277;-68
2023/04/17 06:28:47;;;;;;;20.57;18.13;;;9.00;99.90;;;;;;4948205;29;20185;-69
2023/04/17 06:31:13;;;;;;;21.40;17.63;;;9.00;99.90;;;;;;4953574;29;20245;-69
2023/04/17 06:33:39;;;;;;;23.50;17.80;;;9.10;99.90;;;;;;4948703;28;20173;-70
2023/04/17 06:36:05;;;;;;;20.90;16.53;;;9.10;99.90;;;;;;4954066;29;20208;-69
2023/04/17 06:38:30;;;;;;;21.17;18.83;;;9.00;99.90;;;;;;4952382;29;20208;-70
2023/04/17 06:40:56;;;;;;;20.90;16.40;;;9.10;99.90;;;;;;4951535;29;20934;-69
2023/04/17 06:43:22;;;;;;;20.60;18.40;;;9.10;99.90;;;;;;4950878;28;20596;-70
2023/04/17 06:45:48;;;;;;;24.53;16.70;;;9.10;99.90;;;;;;4948848;28;20575;-68
2023/04/17 06:48:13;;;;;;;21.70;17.00;;;9.00;99.90;;;;;;4951998;29;20435;-68
2023/04/17 06:50:39;;;;;;;22.03;16.53;;;9.00;99.90;;;;;;4953870;29;20177;-69
2023/04/17 06:53:05;;;;;;;20.50;16.47;;;9.10;99.90;;;;;;4953391;29;20265;-70
2023/04/17 06:55:30;;;;;;;22.60;17.63;;;9.10;99.90;;;;;;4950987;29;20232;-72
2023/04/17 06:57:56;;;;;;;18.97;16.60;;;9.10;99.90;;;;;;4953565;29;20515;-70
2023/04/17 07:00:22;;;;;;;24.40;16.80;;;9.10;99.90;;;;;;4952738;29;20227;-69
2023/04/17 07:02:47;;;;;;;20.30;16.47;;;9.10;99.90;;;;;;4953624;29;20260;-70
2023/04/17 07:05:13;;;;;;;24.77;18.80;;;9.10;99.90;;;;;;4953660;28;20205;-69
2023/04/17 07:07:38;;;;;;;20.07;17.03;;;9.10;99.90;;;;;;4952334;29;20608;-70
2023/04/17 07:10:05;;;;;;;20.23;17.47;;;9.20;99.90;;;;;;4952727;29;20236;-70
2023/04/17 07:12:31;;;;;;;21.40;16.63;;;9.20;99.90;;;;;;4952764;29;20228;-70
2023/04/17 07:14:57;;;;;;;18.20;15.57;;;9.20;99.90;;;;;;4952218;29;20826;-69
2023/04/17 07:17:22;;;;;;;19.00;16.93;;;9.20;99.90;;;;;;4953390;29;20420;-68
2023/04/17 07:19:48;;;;;;;20.43;17.20;;;9.30;99.90;;;;;;4952629;29;20173;-71
2023/04/17 07:22:13;;;;;;;19.67;16.43;;;9.30;99.90;;;;;;4951699;29;20287;-69
2023/04/17 07:24:39;;;;;;;19.57;15.17;;;9.20;99.90;;;;;;4953270;29;20189;-69
2023/04/17 07:27:06;;;;;;;21.07;16.47;;;9.20;99.90;;;;;;4953198;29;20605;-69
2023/04/17 07:29:31;;;;;;;26.47;20.03;;;9.20;99.90;;;;;;4952634;29;20180;-70
2023/04/17 07:31:57;;;;;;;22.03;17.93;;;9.30;99.90;;;;;;4952952;29;20809;-70
2023/04/17 07:34:25;;;;;;;21.53;17.50;;;9.30;99.90;;;;;;4953224;28;20776;-69
2023/04/17 07:36:52;;;;;;;22.07;17.27;;;9.40;99.90;;;;;;4953512;29;20660;-69
2023/04/17 07:39:18;;;;;;;21.50;15.87;;;9.30;99.90;;;;;;4952787;29;20809;-69
2023/04/17 07:41:43;;;;;;;19.40;15.70;;;9.30;99.90;;;;;;4949609;29;20436;-70
2023/04/17 07:44:09;;;;;;;20.80;16.50;;;9.30;99.90;;;;;;4952213;28;20177;-69
2023/04/17 07:46:36;;;;;;;18.30;15.63;;;9.40;99.90;;;;;;4955136;28;20641;-70
2023/04/17 07:49:01;;;;;;;20.30;16.70;;;9.40;99.90;;;;;;4923204;29;20521;-69
2023/04/17 07:51:29;;;;;;;17.43;15.40;;;9.30;99.90;;;;;;4942188;29;20260;-69
2023/04/17 07:53:55;;;;;;;16.83;14.67;;;9.40;99.90;;;;;;4956226;29;20189;-69
2023/04/17 07:56:21;;;;;;;18.80;15.47;;;9.50;99.90;;;;;;4953616;28;20846;-68
2023/04/17 07:58:50;;;;;;;17.47;14.97;;;9.50;99.90;;;;;;4955995;29;20173;-70
2023/04/17 08:01:16;;;;;;;18.13;15.30;;;9.50;99.90;;;;;;4960832;28;20182;-68
2023/04/17 08:03:43;;;;;;;18.90;16.10;;;9.50;99.90;;;;;;4954746;28;20440;-69
2023/04/17 08:06:09;;;;;;;16.60;14.00;;;9.60;99.90;;;;;;4950187;28;20288;-68
2023/04/17 08:08:35;;;;;;;16.57;13.60;;;9.60;99.90;;;;;;4956627;28;20447;-69
2023/04/17 08:11:00;;;;;;;15.60;13.27;;;9.60;99.90;;;;;;4955301;28;20795;-69
2023/04/17 08:13:26;;;;;;;15.30;13.10;;;9.70;99.90;;;;;;4954932;29;20271;-70
2023/04/17 08:15:53;;;;;;;14.10;12.70;;;9.70;99.90;;;;;;4956413;28;20207;-68
2023/04/17 08:18:18;;;;;;;13.97;12.47;;;9.60;99.90;;;;;;4955463;29;20168;-70
2023/04/17 08:20:44;;;;;;;14.97;13.37;;;9.60;99.90;;;;;;4956118;29;20932;-69
2023/04/17 08:23:09;;;;;;;15.40;13.07;;;9.50;99.90;;;;;;4954834;29;20181;-69
2023/04/17 08:25:35;;;;;;;15.40;12.70;;;9.50;99.90;;;;;;4955546;29;20192;-70
2023/04/17 08:28:01;;;;;;;13.80;12.40;;;9.50;99.90;;;;;;4956137;29;20605;-69
2023/04/17 08:30:26;;;;;;;15.87;13.40;;;9.50;99.90;;;;;;4955506;29;20184;-69
2023/04/17 08:32:54;;;;;;;14.20;12.70;;;9.50;99.90;;;;;;4955520;29;20685;-69
2023/04/17 08:35:19;;;;;;;16.03;13.13;;;9.60;99.90;;;;;;4955613;29;20197;-69
2023/04/17 08:37:48;;;;;;;12.77;11.47;;;9.70;99.90;;;;;;4955998;29;20425;-68
2023/04/17 08:40:14;;;;;;;15.27;11.83;;;9.60;99.90;;;;;;4955109;29;20169;-69
2023/04/17 08:42:41;;;;;;;15.03;12.57;;;9.60;99.90;;;;;;4954945;29;20465;-68
2023/04/17 08:45:12;;;;;;;13.87;12.10;;;9.70;99.90;;;;;;4955393;29;20551;-69
2023/04/17 08:47:41;;;;;;;17.63;12.07;;;9.60;99.90;;;;;;4955594;29;20433;-69
2023/04/17 08:50:11;;;;;;;15.07;13.20;;;9.60;99.90;;;;;;4955024;29;20503;-69
2023/04/17 08:52:44;;;;;;;16.73;13.33;;;9.60;99.90;;;;;;4954824;29;20462;-68
2023/04/17 08:55:14;;;;;;;17.03;14.80;;;9.70;99.90;;;;;;4955504;29;20490;-69
2023/04/17 08:58:00;;;;;;;15.00;13.10;;;9.70;99.90;;;;;;4955316;28;20905;-70
2023/04/17 09:00:30;;;;;;;15.30;12.57;;;9.70;99.90;;;;;;4954835;29;20503;-68
2023/04/17 09:02:57;;;;;;;15.27;12.40;;;9.70;99.90;;;;;;4953800;29;21168;-69
2023/04/17 09:05:24;;;;;;;13.30;11.90;;;9.70;99.90;;;;;;4955266;29;20444;-69
2023/04/17 09:08:07;;;;;;;16.23;13.63;;;9.70;99.90;;;;;;4955417;29;20429;-68
2023/04/17 09:10:43;;;;;;;15.43;13.77;;;9.70;99.90;;;;;;4954708;29;20515;-70
2023/04/17 09:13:10;;;;;;;16.60;12.47;;;9.80;99.90;;;;;;4954163;29;20447;-69
2023/04/17 09:15:36;;;;;;;14.60;13.10;;;9.90;99.90;;;;;;4954873;28;20459;-69
2023/04/17 09:18:02;;;;;;;13.70;12.10;;;10.10;99.90;;;;;;4955120;29;20421;-70
2023/04/17 09:20:28;;;;;;;15.23;13.00;;;10.20;99.90;;;;;;4951417;29;20260;-70
2023/04/17 09:23:02;;;;;;;14.43;12.17;;;10.20;99.90;;;;;;4954999;29;20500;-70
2023/04/17 09:25:28;;;;;;;14.27;12.77;;;10.40;99.90;;;;;;4955099;28;20197;-70
2023/04/17 09:28:01;;;;;;;13.13;11.80;;;10.70;99.90;;;;;;4954785;29;20427;-70
2023/04/17 09:30:26;;;;;;;15.53;13.20;;;10.80;99.90;;;;;;4951877;29;20483;-69
2023/04/17 09:33:03;;;;;;;13.87;12.50;;;11.00;99.90;;;;;;4954228;29;20921;-69
2023/04/17 09:35:28;;;;;;;11.83;10.63;;;11.20;99.90;;;;;;4946828;29;20283;-69
2023/04/17 09:37:57;;;;;;;11.83;10.53;;;11.20;99.90;;;;;;4954763;29;20865;-69
2023/04/17 09:40:24;;;;;;;13.67;12.30;;;11.00;99.90;;;;;;4953291;29;20196;-68
2023/04/17 09:43:02;;;;;;;13.10;11.80;;;10.90;99.90;;;;;;4953467;29;20456;-69
2023/04/17 09:45:40;;;;;;;11.23;9.73;;;10.80;99.90;;;;;;4946774;29;20476;-69
2023/04/17 09:48:11;;;;;;;11.20;10.00;;;10.50;99.90;;;;;;4945856;29;21023;-70
2023/04/17 09:50:38;;;;;;;12.73;11.43;;;10.30;99.90;;;;;;4954180;29;20440;-70
2023/04/17 09:53:04;;;;;;;11.37;10.27;;;10.20;99.90;;;;;;4939884;28;20877;-69
2023/04/17 09:55:31;;;;;;;11.40;10.13;;;10.20;99.90;;;;;;4935252;29;20564;-70
2023/04/17 09:58:00;;;;;;;10.23;9.23;;;10.30;99.90;;;;;;4935353;29;20429;-70
2023/04/17 10:00:26;;;;;;;13.03;9.40;;;10.50;99.90;;;;;;4949982;29;20948;-71
2023/04/17 10:02:53;;;;;;;13.10;11.70;;;10.80;99.90;;;;;;4949805;29;21001;-70
2023/04/17 10:05:20;;;;;;;9.73;8.77;;;11.20;99.90;;;;;;4954259;28;20452;-70
2023/04/17 10:07:45;;;;;;;9.13;8.27;;;11.60;99.90;;;;;;4954091;28;20425;-70
2023/04/17 10:10:22;;;;;;;8.30;7.50;;;11.90;99.90;;;;;;4951784;28;20980;-70
2023/04/17 10:12:49;;;;;;;9.67;8.77;;;11.90;99.90;;;;;;4952607;28;20476;-68
2023/04/17 10:15:15;;;;;;;9.23;8.43;;;12.00;99.90;;;;;;4952286;29;21188;-68
2023/04/17 10:17:40;;;;;;;10.30;9.40;;;11.90;99.90;;;;;;4949497;29;20443;-68
2023/04/17 10:20:16;;;;;;;9.17;8.27;;;11.90;99.90;;;;;;4945410;29;20181;-68
2023/04/17 10:22:48;;;;;;;10.57;8.20;;;11.70;99.90;;;;;;4945893;29;20551;-70
2023/04/17 10:25:13;;;;;;;8.50;7.70;;;11.40;99.90;;;;;;4943582;29;20457;-67
2023/04/17 10:27:39;;;;;;;10.00;8.50;;;11.20;99.90;;;;;;4945596;29;20930;-68
2023/04/17 10:30:09;;;;;;;8.43;7.63;;;11.00;99.90;;;;;;4952164;29;20184;-68
2023/04/17 10:32:35;;;;;;;8.93;8.03;;;10.90;99.90;;;;;;4953063;28;20185;-69
2023/04/17 10:35:21;;;;;;;9.67;8.73;;;10.80;99.90;;;;;;4953560;29;20547;-69
2023/04/17 10:37:46;;;;;;;9.60;8.70;;;10.90;99.90;;;;;;4951093;28;20434;-69
2023/04/17 10:40:32;;;;;;;8.83;8.00;;;11.00;99.90;;;;;;4953094;29;20504;-68
2023/04/17 10:43:19;;;;;;;10.03;9.07;;;11.20;99.90;;;;;;4953145;29;20181;-68
2023/04/17 10:45:56;;;;;;;9.83;8.93;;;11.20;99.90;;;;;;4953351;28;20464;-68
2023/04/17 10:48:34;;;;;;;8.63;7.73;;;11.20;99.90;;;;;;4951727;29;21943;-69
2023/04/17 10:51:20;;;;;;;9.67;8.70;;;11.30;99.90;;;;;;4936401;29;20523;-68
2023/04/17 10:53:48;;;;;;;10.10;9.07;;;11.40;99.90;;;;;;4953645;29;20432;-68
2023/04/17 10:56:23;;;;;;;9.20;8.40;;;11.50;99.90;;;;;;4953423;28;20887;-68
2023/04/17 10:59:01;;;;;;;8.30;7.47;;;11.60;99.90;;;;;;4951068;29;20468;-68
2023/04/17 11:01:36;;;;;;;9.53;8.50;;;11.60;99.90;;;;;;4952680;29;20432;-69
2023/04/17 11:04:03;;;;;;;8.53;7.73;;;11.70;99.90;;;;;;4951711;28;20853;-68
2023/04/17 11:06:30;;;;;;;8.43;7.63;;;11.80;99.90;;;;;;4945954;29;20827;-68
2023/04/17 11:08:56;;;;;;;7.87;7.00;;;12.00;99.90;;;;;;4952289;29;20442;-68
2023/04/17 11:11:22;;;;;;;8.63;7.03;;;12.20;99.90;;;;;;4953535;29;20483;-69
2023/04/17 11:13:48;;;;;;;7.63;6.93;;;12.40;99.90;;;;;;4943888;28;20511;-69
2023/04/17 11:16:14;;;;;;;6.43;5.90;;;12.60;99.90;;;;;;4953198;29;20480;-68
2023/04/17 11:18:46;;;;;;;5.53;5.03;;;12.80;99.90;;;;;;4952802;29;20169;-68
2023/04/17 11:21:12;;;;;;;5.37;4.90;;;12.80;99.90;;;;;;4954430;28;20421;-68
2023/04/17 11:23:38;;;;;;;5.73;5.13;;;12.90;99.90;;;;;;4954364;29;20531;-68
2023/04/17 11:26:07;;;;;;;5.87;5.37;;;13.10;99.90;;;;;;4956515;29;20518;-68
2023/04/17 11:28:36;;;;;;;5.90;5.37;;;13.30;99.90;;;;;;4956506;29;20929;-68
2023/04/17 11:31:02;;;;;;;6.40;5.90;;;13.30;99.90;;;;;;4956971;29;20459;-68
2023/04/17 11:33:35;;;;;;;5.27;4.77;;;13.30;99.90;;;;;;4955675;29;20456;-68
2023/04/17 11:36:01;;;;;;;6.43;5.87;;;13.40;99.90;;;;;;4957049;28;20475;-68
2023/04/17 11:38:26;;;;;;;6.00;5.50;;;13.90;99.90;;;;;;4956221;29;20503;-69
2023/04/17 11:40:54;;;;;;;5.83;5.33;;;14.70;99.90;;;;;;4956958;29;20208;-68
2023/04/17 11:43:21;;;;;;;6.33;5.07;;;15.30;99.90;;;;;;4955477;29;20181;-68
2023/04/17 11:45:50;;;;;;;5.00;4.50;;;16.00;99.90;;;;;;4956439;28;20479;-69
2023/04/17 11:48:18;;;;;;;5.87;5.47;;;16.50;99.90;;;;;;4956207;29;20420;-68
2023/04/17 11:50:44;;;;;;;5.57;5.07;;;17.10;99.90;;;;;;4957002;29;20424;-69
2023/04/17 11:53:16;;;;;;;5.27;4.87;;;19.00;99.90;;;;;;4955558;29;20424;-69
2023/04/17 11:55:43;;;;;;;4.87;4.50;;;21.60;99.90;;;;;;4956457;28;20453;-69
2023/04/17 11:58:11;;;;;;;4.63;4.33;;;22.10;96.20;;;;;;4956354;29;20435;-69
2023/04/17 12:00:38;;;;;;;4.07;3.67;;;23.50;93.60;;;;;;4956548;29;20427;-69
2023/04/17 12:03:35;;;;;;;5.00;4.70;;;25.00;82.50;;;;;;4955725;29;20424;-69
2023/04/17 12:06:05;;;;;;;4.27;4.07;;;23.10;82.30;;;;;;4952722;29;21242;-71
2023/04/17 12:08:52;;;;;;;5.20;4.77;;;20.60;90.30;;;;;;4936410;29;20416;-68
2023/04/17 12:11:28;;;;;;;5.13;4.73;;;18.60;99.90;;;;;;4965583;28;20510;-70
2023/04/17 12:13:55;;;;;;;5.70;5.30;;;17.30;99.90;;;;;;4966553;28;20431;-68
2023/04/17 12:16:23;;;;;;;7.60;7.00;;;16.30;99.90;;;;;;4955201;29;20467;-68
2023/04/17 12:18:49;;;;;;;6.50;6.00;;;15.30;99.90;;;;;;4950868;28;21068;-68
2023/04/17 12:21:14;;;;;;;8.20;7.40;;;14.70;99.90;;;;;;4950173;29;20429;-68
2023/04/17 12:23:40;;;;;;;7.03;6.47;;;14.50;99.90;;;;;;4955008;29;20177;-68
2023/04/17 12:26:06;;;;;;;7.00;6.40;;;14.10;99.90;;;;;;4956008;29;20200;-69
2023/04/17 12:28:32;;;;;;;7.27;6.67;;;13.80;99.90;;;;;;4955221;29;20215;-68
2023/04/17 12:30:58;;;;;;;7.33;6.63;;;13.50;99.90;;;;;;4956381;29;20421;-69
2023/04/17 12:33:23;;;;;;;7.20;6.53;;;13.00;99.90;;;;;;4954296;28;20228;-69
2023/04/17 12:35:50;;;;;;;7.50;6.80;;;12.80;99.90;;;;;;4955975;29;20232;-68
2023/04/17 12:38:16;;;;;;;8.83;7.60;;;12.70;99.90;;;;;;4955355;29;20580;-68